Date,TemperatureHighF,TemperatureAvgF,TemperatureLowF,DewpointHighF,DewpointAvgF,DewpointLowF,HumidityHigh,HumidityAvg,HumidityLow,PressureMaxIn,PressureMinIn,WindSpeedMaxMPH,WindSpeedAvgMPH,GustSpeedMaxMPH,PrecipitationSumIn
2013-9-1,96.0,81.5,69.0,49.0,44.5,40.0,47,29,14,0.00,40.00,12,7,18,0.00
2013-9-2,91.0,80.7,69.0,57.0,51.5,47.0,56,37,22,0.00,40.00,16,9,22,0.00
2013-9-3,93.0,81.0,70.0,56.0,50.9,40.0,61,38,15,0.00,40.00,13,7,21,0.00
2013-9-4,93.0,80.9,69.0,58.0,52.0,47.0,56,38,20,0.00,40.00,13,6,17,0.00
2013-9-5,86.0,75.3,67.0,65.0,58.1,55.0,87,56,37,0.00,40.00,21,6,30,0.00
2013-9-6,70.0,64.6,58.0,60.0,57.0,53.0,89,76,58,0.00,40.00,12,4,18,0.00
2013-9-7,76.0,61.1,55.0,58.0,48.4,-99.9,96,73,43,0.00,40.00,16,6,21,0.00
2013-9-8,86.0,71.5,57.0,57.0,52.5,46.0,89,56,24,0.00,40.00,10,6,15,0.00
2013-9-9,91.0,76.6,61.0,54.0,49.7,43.0,74,42,18,0.00,40.00,8,4,12,0.00
2013-9-10,93.0,78.1,62.0,55.0,50.8,48.0,72,41,21,0.00,40.00,10,7,15,0.00
2013-9-11,96.0,84.7,71.0,50.0,48.0,46.0,47,29,18,0.00,40.00,12,9,17,0.00
2013-9-12,95.0,82.6,72.0,52.0,49.0,46.0,47,32,19,0.00,40.00,10,6,13,0.00
2013-9-13,100.0,82.3,65.0,57.0,51.7,44.0,72,39,14,0.00,40.00,9,5,12,0.00
2013-9-14,94.0,77.0,66.0,57.0,46.2,-99.9,70,38,23,0.00,40.00,9,6,13,0.00
2013-9-15,95.0,79.9,70.0,60.0,51.4,46.0,70,40,20,0.00,40.00,10,6,16,0.00
2013-9-16,79.0,69.8,62.0,63.0,55.0,48.0,90,62,33,0.00,40.00,15,5,22,0.00
2013-9-17,73.0,66.3,55.0,53.0,47.7,41.0,86,52,36,0.00,40.00,18,7,31,0.00
2013-9-18,64.0,61.6,59.0,41.0,39.6,37.0,51,44,36,0.00,40.00,20,14,31,0.00
2013-9-19,77.0,63.5,49.0,43.0,39.9,36.0,68,44,23,0.00,40.00,10,5,13,0.00
2013-9-20,79.0,66.1,51.0,43.0,40.5,37.0,73,42,22,0.00,40.00,17,7,24,0.00
2013-9-21,77.0,65.8,59.0,50.0,37.8,-99.9,72,41,28,0.00,40.00,17,9,25,0.00
2013-9-22,69.0,60.7,54.0,50.0,44.9,39.0,74,57,37,0.00,40.00,20,10,31,0.00
2013-9-23,68.0,61.5,56.0,45.0,43.3,42.0,63,51,38,0.00,40.00,27,13,37,0.00
2013-9-24,65.0,58.6,53.0,45.0,37.5,32.0,71,47,29,0.00,40.00,12,7,18,0.00
2013-9-25,70.0,56.2,45.0,42.0,36.9,23.0,82,52,16,0.00,40.00,20,7,27,0.00
2013-9-26,66.0,56.3,50.0,46.0,40.7,35.0,71,56,34,0.00,40.00,15,10,22,0.00
2013-9-27,63.0,54.4,46.0,49.0,41.0,31.0,86,61,47,0.00,40.00,15,7,22,0.00
2013-9-28,71.0,58.6,51.0,52.0,43.9,-99.9,89,66,42,0.00,40.00,24,13,41,0.00
2013-9-29,63.0,57.4,52.0,49.0,43.0,40.0,83,59,44,0.00,40.00,28,16,45,0.00
2013-9-30,66.0,59.0,52.0,49.0,38.8,36.0,64,47,35,0.00,40.00,29,20,48,0.00